sensor_id;sensor_type;location;lat;lon;timestamp;pressure;altitude;pressure_sealevel;temperature;humidity
32456;BME280;18912;43.270;27.942;2022-11-03T00:02:15;98553.13;;;16.29;60.15
32456;BME280;18912;43.270;27.942;2022-11-03T00:04:41;98559.38;;;16.18;60.59
32456;BME280;18912;43.270;27.942;2022-11-03T00:07:08;98548.91;;;16.15;60.69
32456;BME280;18912;43.270;27.942;2022-11-03T00:09:34;98554.19;;;15.99;61.19
32456;BME280;18912;43.270;27.942;2022-11-03T00:12:00;98551.66;;;15.85;61.28
32456;BME280;18912;43.270;27.942;2022-11-03T00:14:26;98556.53;;;15.65;61.67
32456;BME280;18912;43.270;27.942;2022-11-03T00:16:53;98556.63;;;15.59;61.61
32456;BME280;18912;43.270;27.942;2022-11-03T00:19:19;98568.91;;;15.50;61.85
32456;BME280;18912;43.270;27.942;2022-11-03T00:21:44;98557.81;;;15.27;62.60
32456;BME280;18912;43.270;27.942;2022-11-03T00:24:10;98569.75;;;15.26;62.56
32456;BME280;18912;43.270;27.942;2022-11-03T00:26:36;98570.81;;;15.25;62.81
32456;BME280;18912;43.270;27.942;2022-11-03T00:29:07;98568.16;;;15.18;62.66
32456;BME280;18912;43.270;27.942;2022-11-03T00:31:34;98569.44;;;15.16;62.71
32456;BME280;18912;43.270;27.942;2022-11-03T00:34:01;98563.41;;;15.14;63.10
32456;BME280;18912;43.270;27.942;2022-11-03T00:36:30;98567.16;;;15.13;63.14
32456;BME280;18912;43.270;27.942;2022-11-03T00:38:56;98568.00;;;15.13;63.66
32456;BME280;18912;43.270;27.942;2022-11-03T00:41:24;98572.56;;;15.19;64.06
32456;BME280;18912;43.270;27.942;2022-11-03T00:43:50;98567.84;;;15.26;64.26
32456;BME280;18912;43.270;27.942;2022-11-03T00:46:16;98565.50;;;15.30;64.96
32456;BME280;18912;43.270;27.942;2022-11-03T00:48:43;98577.75;;;15.39;65.28
32456;BME280;18912;43.270;27.942;2022-11-03T00:51:14;98570.16;;;15.47;65.17
32456;BME280;18912;43.270;27.942;2022-11-03T00:53:40;98571.75;;;15.55;64.99
32456;BME280;18912;43.270;27.942;2022-11-03T00:56:09;98574.25;;;15.56;64.92
32456;BME280;18912;43.270;27.942;2022-11-03T00:58:35;98577.22;;;15.55;64.88
32456;BME280;18912;43.270;27.942;2022-11-03T01:01:07;98579.78;;;15.50;64.78
32456;BME280;18912;43.270;27.942;2022-11-03T01:03:35;98582.59;;;15.37;65.07
32456;BME280;18912;43.270;27.942;2022-11-03T01:06:01;98587.47;;;15.35;65.25
32456;BME280;18912;43.270;27.942;2022-11-03T01:08:45;98584.06;;;15.39;65.11
32456;BME280;18912;43.270;27.942;2022-11-03T01:11:13;98589.72;;;15.38;65.26
32456;BME280;18912;43.270;27.942;2022-11-03T01:13:58;98595.03;;;15.33;65.42
32456;BME280;18912;43.270;27.942;2022-11-03T01:16:24;98594.56;;;15.36;65.35
32456;BME280;18912;43.270;27.942;2022-11-03T01:18:50;98587.91;;;15.32;65.33
32456;BME280;18912;43.270;27.942;2022-11-03T01:21:16;98587.16;;;15.25;65.61
32456;BME280;18912;43.270;27.942;2022-11-03T01:23:42;98587.59;;;15.22;65.72
32456;BME280;18912;43.270;27.942;2022-11-03T01:26:09;98593.97;;;15.16;65.83
32456;BME280;18912;43.270;27.942;2022-11-03T01:28:36;98597.34;;;15.11;65.88
32456;BME280;18912;43.270;27.942;2022-11-03T01:31:07;98598.94;;;15.01;66.15
32456;BME280;18912;43.270;27.942;2022-11-03T01:33:33;98601.75;;;14.87;66.74
32456;BME280;18912;43.270;27.942;2022-11-03T01:35:58;98605.38;;;14.81;66.79
32456;BME280;18912;43.270;27.942;2022-11-03T01:38:24;98605.38;;;14.81;66.69
32456;BME280;18912;43.270;27.942;2022-11-03T01:40:50;98601.84;;;14.74;67.49
32456;BME280;18912;43.270;27.942;2022-11-03T01:43:17;98611.47;;;14.77;67.49
32456;BME280;18912;43.270;27.942;2022-11-03T01:45:43;98613.34;;;14.76;67.67
32456;BME280;18912;43.270;27.942;2022-11-03T01:48:11;98610.22;;;14.79;67.47
32456;BME280;18912;43.270;27.942;2022-11-03T01:50:38;98609.78;;;14.76;67.40
32456;BME280;18912;43.270;27.942;2022-11-03T01:53:07;98619.41;;;14.78;67.49
32456;BME280;18912;43.270;27.942;2022-11-03T01:55:34;98618.53;;;14.84;67.46
32456;BME280;18912;43.270;27.942;2022-11-03T01:58:13;98616.41;;;14.86;67.49
32456;BME280;18912;43.270;27.942;2022-11-03T02:00:44;98620.97;;;14.92;67.50
32456;BME280;18912;43.270;27.942;2022-11-03T02:03:11;98622.47;;;14.88;67.42
32456;BME280;18912;43.270;27.942;2022-11-03T02:05:37;98608.72;;;14.83;67.16
32456;BME280;18912;43.270;27.942;2022-11-03T02:08:08;98618.25;;;14.92;67.02
32456;BME280;18912;43.270;27.942;2022-11-03T02:10:36;98621.75;;;14.99;66.88
32456;BME280;18912;43.270;27.942;2022-11-03T02:13:10;98630.53;;;15.02;67.23
32456;BME280;18912;43.270;27.942;2022-11-03T02:15:37;98618.75;;;15.08;67.20
32456;BME280;18912;43.270;27.942;2022-11-03T02:18:04;98615.78;;;15.09;67.43
32456;BME280;18912;43.270;27.942;2022-11-03T02:20:31;98619.47;;;15.21;67.00
32456;BME280;18912;43.270;27.942;2022-11-03T02:23:05;98624.22;;;15.26;66.67
32456;BME280;18912;43.270;27.942;2022-11-03T02:25:44;98631.63;;;15.37;66.91
32456;BME280;18912;43.270;27.942;2022-11-03T02:28:11;98633.94;;;15.40;67.08
32456;BME280;18912;43.270;27.942;2022-11-03T02:30:51;98639.56;;;15.45;67.19
32456;BME280;18912;43.270;27.942;2022-11-03T02:36:09;98626.84;;;15.57;67.35
32456;BME280;18912;43.270;27.942;2022-11-03T02:38:45;98634.66;;;15.53;67.57
32456;BME280;18912;43.270;27.942;2022-11-03T02:41:12;98622.91;;;15.53;67.65
32456;BME280;18912;43.270;27.942;2022-11-03T02:43:39;98624.50;;;15.60;67.63
32456;BME280;18912;43.270;27.942;2022-11-03T02:46:06;98634.88;;;15.70;67.20
32456;BME280;18912;43.270;27.942;2022-11-03T02:48:32;98630.50;;;15.69;67.13
32456;BME280;18912;43.270;27.942;2022-11-03T02:50:57;98632.63;;;15.67;67.13
32456;BME280;18912;43.270;27.942;2022-11-03T02:53:24;98637.91;;;15.62;67.06
32456;BME280;18912;43.270;27.942;2022-11-03T02:58:44;98646.78;;;15.33;66.14
32456;BME280;18912;43.270;27.942;2022-11-03T03:01:27;98644.75;;;15.04;66.31
32456;BME280;18912;43.270;27.942;2022-11-03T03:04:03;98645.97;;;14.83;66.91
32456;BME280;18912;43.270;27.942;2022-11-03T03:06:45;98646.88;;;14.70;67.19
32456;BME280;18912;43.270;27.942;2022-11-03T03:09:19;98650.28;;;14.66;67.46
32456;BME280;18912;43.270;27.942;2022-11-03T03:11:48;98645.94;;;14.58;68.02
32456;BME280;18912;43.270;27.942;2022-11-03T03:14:22;98641.88;;;14.36;69.55
32456;BME280;18912;43.270;27.942;2022-11-03T03:22:21;98633.69;;;14.05;70.13
32456;BME280;18912;43.270;27.942;2022-11-03T03:25:21;98631.59;;;14.07;70.49
32456;BME280;18912;43.270;27.942;2022-11-03T03:27:53;98639.97;;;13.99;70.97
32456;BME280;18912;43.270;27.942;2022-11-03T03:30:22;98646.28;;;13.93;71.61
32456;BME280;18912;43.270;27.942;2022-11-03T03:32:49;98645.63;;;13.97;72.09
32456;BME280;18912;43.270;27.942;2022-11-03T03:35:21;98636.88;;;13.95;71.77
32456;BME280;18912;43.270;27.942;2022-11-03T03:37:51;98653.75;;;14.04;71.82
32456;BME280;18912;43.270;27.942;2022-11-03T03:40:31;98653.34;;;14.00;72.20
32456;BME280;18912;43.270;27.942;2022-11-03T03:42:59;98650.41;;;14.02;72.39
32456;BME280;18912;43.270;27.942;2022-11-03T03:45:26;98642.69;;;13.99;72.70
32456;BME280;18912;43.270;27.942;2022-11-03T03:47:52;98652.94;;;13.97;72.93
32456;BME280;18912;43.270;27.942;2022-11-03T03:50:19;98648.13;;;13.99;73.17
32456;BME280;18912;43.270;27.942;2022-11-03T03:52:47;98647.06;;;14.00;72.97
32456;BME280;18912;43.270;27.942;2022-11-03T03:55:16;98646.66;;;14.03;72.71
32456;BME280;18912;43.270;27.942;2022-11-03T03:57:42;98648.56;;;13.96;72.85
32456;BME280;18912;43.270;27.942;2022-11-03T04:00:12;98651.91;;;13.98;72.66
32456;BME280;18912;43.270;27.942;2022-11-03T04:02:38;98647.13;;;13.87;72.89
32456;BME280;18912;43.270;27.942;2022-11-03T04:05:04;98640.03;;;13.86;72.86
32456;BME280;18912;43.270;27.942;2022-11-03T04:07:29;98636.25;;;13.87;72.50
32456;BME280;18912;43.270;27.942;2022-11-03T04:10:19;98631.25;;;13.84;72.63
32456;BME280;18912;43.270;27.942;2022-11-03T04:12:45;98637.34;;;13.79;72.74
32456;BME280;18912;43.270;27.942;2022-11-03T04:15:30;98641.97;;;13.72;72.65
32456;BME280;18912;43.270;27.942;2022-11-03T04:18:16;98649.50;;;13.70;73.15
32456;BME280;18912;43.270;27.942;2022-11-03T04:21:00;98652.63;;;13.74;73.50
32456;BME280;18912;43.270;27.942;2022-11-03T04:23:44;98647.19;;;13.74;74.24
32456;BME280;18912;43.270;27.942;2022-11-03T04:26:17;98652.81;;;13.79;74.79
32456;BME280;18912;43.270;27.942;2022-11-03T04:28:44;98658.44;;;13.84;74.81
32456;BME280;18912;43.270;27.942;2022-11-03T04:31:17;98647.78;;;13.82;74.83
32456;BME280;18912;43.270;27.942;2022-11-03T04:33:43;98666.78;;;13.89;75.07
32456;BME280;18912;43.270;27.942;2022-11-03T04:36:22;98662.19;;;13.89;74.83
32456;BME280;18912;43.270;27.942;2022-11-03T04:38:49;98663.25;;;13.88;74.94
32456;BME280;18912;43.270;27.942;2022-11-03T04:41:19;98663.84;;;13.90;75.12
32456;BME280;18912;43.270;27.942;2022-11-03T04:43:45;98676.38;;;13.91;75.17
32456;BME280;18912;43.270;27.942;2022-11-03T04:46:23;98673.06;;;13.89;75.48
32456;BME280;18912;43.270;27.942;2022-11-03T04:48:49;98682.66;;;13.92;75.69
32456;BME280;18912;43.270;27.942;2022-11-03T04:51:17;98674.88;;;14.02;76.13
32456;BME280;18912;43.270;27.942;2022-11-03T04:53:54;98681.16;;;14.02;76.66
32456;BME280;18912;43.270;27.942;2022-11-03T04:56:22;98683.66;;;14.04;77.76
32456;BME280;18912;43.270;27.942;2022-11-03T04:58:48;98688.44;;;14.08;78.40
32456;BME280;18912;43.270;27.942;2022-11-03T05:01:18;98682.72;;;14.23;78.31
32456;BME280;18912;43.270;27.942;2022-11-03T05:03:47;98679.16;;;14.36;78.04
32456;BME280;18912;43.270;27.942;2022-11-03T05:06:23;98692.44;;;14.50;77.69
32456;BME280;18912;43.270;27.942;2022-11-03T05:08:54;98692.00;;;14.53;77.50
32456;BME280;18912;43.270;27.942;2022-11-03T05:11:30;98699.06;;;14.61;77.38
32456;BME280;18912;43.270;27.942;2022-11-03T05:14:02;98700.31;;;14.65;76.87
32456;BME280;18912;43.270;27.942;2022-11-03T05:16:30;98706.75;;;14.70;76.92
32456;BME280;18912;43.270;27.942;2022-11-03T05:18:56;98714.44;;;14.80;76.31
32456;BME280;18912;43.270;27.942;2022-11-03T05:21:22;98721.97;;;14.84;75.91
32456;BME280;18912;43.270;27.942;2022-11-03T05:24:01;98722.31;;;14.94;75.49
32456;BME280;18912;43.270;27.942;2022-11-03T05:26:31;98722.94;;;14.96;75.17
32456;BME280;18912;43.270;27.942;2022-11-03T05:29:00;98723.63;;;15.10;74.89
32456;BME280;18912;43.270;27.942;2022-11-03T05:31:28;98729.63;;;15.25;74.37
32456;BME280;18912;43.270;27.942;2022-11-03T05:33:59;98731.41;;;15.62;73.69
32456;BME280;18912;43.270;27.942;2022-11-03T05:36:28;98739.63;;;15.99;72.48
32456;BME280;18912;43.270;27.942;2022-11-03T05:39:00;98744.31;;;16.10;71.64
32456;BME280;18912;43.270;27.942;2022-11-03T05:41:35;98745.44;;;16.56;70.09
32456;BME280;18912;43.270;27.942;2022-11-03T05:44:02;98752.84;;;16.97;68.17
32456;BME280;18912;43.270;27.942;2022-11-03T05:46:37;98747.69;;;17.19;66.99
32456;BME280;18912;43.270;27.942;2022-11-03T05:49:02;98750.03;;;17.56;65.21
32456;BME280;18912;43.270;27.942;2022-11-03T05:51:37;98754.31;;;18.10;63.37
32456;BME280;18912;43.270;27.942;2022-11-03T05:54:08;98753.25;;;18.62;60.92
32456;BME280;18912;43.270;27.942;2022-11-03T05:56:37;98748.66;;;19.08;59.38
32456;BME280;18912;43.270;27.942;2022-11-03T05:59:03;98757.56;;;19.60;56.83
32456;BME280;18912;43.270;27.942;2022-11-03T06:01:31;98754.53;;;19.94;55.32
32456;BME280;18912;43.270;27.942;2022-11-03T06:04:14;98767.72;;;20.30;54.62
32456;BME280;18912;43.270;27.942;2022-11-03T06:06:41;98767.00;;;20.62;53.31
32456;BME280;18912;43.270;27.942;2022-11-03T06:09:18;98772.59;;;21.15;51.76
32456;BME280;18912;43.270;27.942;2022-11-03T06:11:45;98775.22;;;21.58;50.27
32456;BME280;18912;43.270;27.942;2022-11-03T06:14:23;98781.53;;;21.85;49.96
32456;BME280;18912;43.270;27.942;2022-11-03T06:19:28;98773.75;;;22.61;47.27
32456;BME280;18912;43.270;27.942;2022-11-03T06:22:10;98769.06;;;23.33;45.90
32456;BME280;18912;43.270;27.942;2022-11-03T06:24:38;98776.81;;;23.91;44.25
32456;BME280;18912;43.270;27.942;2022-11-03T06:27:03;98778.09;;;24.59;42.93
32456;BME280;18912;43.270;27.942;2022-11-03T06:29:31;98774.34;;;24.99;41.81
32456;BME280;18912;43.270;27.942;2022-11-03T06:31:57;98771.34;;;25.78;40.70
32456;BME280;18912;43.270;27.942;2022-11-03T06:34:53;98784.84;;;26.47;38.81
32456;BME280;18912;43.270;27.942;2022-11-03T06:37:33;98783.41;;;27.20;37.60
32456;BME280;18912;43.270;27.942;2022-11-03T06:42:51;98785.84;;;29.28;33.92
32456;BME280;18912;43.270;27.942;2022-11-03T06:45:23;98794.44;;;30.65;32.11
32456;BME280;18912;43.270;27.942;2022-11-03T06:47:49;98791.16;;;31.92;30.24
32456;BME280;18912;43.270;27.942;2022-11-03T06:52:51;98798.53;;;32.14;29.47
32456;BME280;18912;43.270;27.942;2022-11-03T06:55:26;98788.53;;;33.05;28.53
32456;BME280;18912;43.270;27.942;2022-11-03T06:57:56;98789.44;;;34.30;26.89
32456;BME280;18912;43.270;27.942;2022-11-03T07:00:25;98796.91;;;34.26;26.71
32456;BME280;18912;43.270;27.942;2022-11-03T07:05:32;98792.56;;;32.24;28.71
32456;BME280;18912;43.270;27.942;2022-11-03T07:08:33;98787.66;;;32.12;28.49
32456;BME280;18912;43.270;27.942;2022-11-03T07:11:03;98795.59;;;30.94;30.06
32456;BME280;18912;43.270;27.942;2022-11-03T07:13:33;98798.66;;;30.54;30.82
32456;BME280;18912;43.270;27.942;2022-11-03T07:15:58;98792.38;;;29.60;31.78
32456;BME280;18912;43.270;27.942;2022-11-03T07:20:53;98787.88;;;28.41;33.54
32456;BME280;18912;43.270;27.942;2022-11-03T07:23:23;98781.22;;;27.92;34.24
32456;BME280;18912;43.270;27.942;2022-11-03T07:25:54;98795.16;;;27.54;34.70
32456;BME280;18912;43.270;27.942;2022-11-03T07:28:24;98792.19;;;27.09;35.29
32456;BME280;18912;43.270;27.942;2022-11-03T07:30:50;98795.00;;;26.56;36.26
32456;BME280;18912;43.270;27.942;2022-11-03T07:33:21;98800.38;;;26.48;36.69
32456;BME280;18912;43.270;27.942;2022-11-03T07:35:48;98797.97;;;26.65;36.53
32456;BME280;18912;43.270;27.942;2022-11-03T07:38:20;98804.09;;;26.05;36.94
32456;BME280;18912;43.270;27.942;2022-11-03T07:40:48;98801.16;;;26.25;37.04
32456;BME280;18912;43.270;27.942;2022-11-03T07:43:15;98804.72;;;26.54;37.11
32456;BME280;18912;43.270;27.942;2022-11-03T07:45:52;98798.88;;;26.84;36.38
32456;BME280;18912;43.270;27.942;2022-11-03T07:50:54;98803.16;;;27.93;34.45
32456;BME280;18912;43.270;27.942;2022-11-03T07:53:40;98802.47;;;27.08;34.94
32456;BME280;18912;43.270;27.942;2022-11-03T07:56:28;98802.56;;;27.22;35.19
32456;BME280;18912;43.270;27.942;2022-11-03T08:01:34;98806.09;;;27.27;34.48
32456;BME280;18912;43.270;27.942;2022-11-03T08:04:04;98804.09;;;26.38;35.88
32456;BME280;18912;43.270;27.942;2022-11-03T08:06:31;98809.63;;;25.71;36.57
32456;BME280;18912;43.270;27.942;2022-11-03T08:08:57;98805.38;;;24.91;37.84
32456;BME280;18912;43.270;27.942;2022-11-03T08:11:23;98801.69;;;24.22;39.32
32456;BME280;18912;43.270;27.942;2022-11-03T08:13:50;98800.28;;;23.59;39.90
32456;BME280;18912;43.270;27.942;2022-11-03T08:16:16;98808.56;;;23.64;40.06
32456;BME280;18912;43.270;27.942;2022-11-03T08:18:41;98808.00;;;23.92;39.71
32456;BME280;18912;43.270;27.942;2022-11-03T08:21:07;98807.19;;;23.71;39.03
32456;BME280;18912;43.270;27.942;2022-11-03T08:23:32;98816.53;;;24.46;38.36
32456;BME280;18912;43.270;27.942;2022-11-03T08:25:57;98815.38;;;25.36;37.25
32456;BME280;18912;43.270;27.942;2022-11-03T08:28:24;98815.28;;;25.95;35.35
32456;BME280;18912;43.270;27.942;2022-11-03T08:30:50;98811.06;;;26.59;35.27
32456;BME280;18912;43.270;27.942;2022-11-03T08:33:15;98810.03;;;27.03;33.28
32456;BME280;18912;43.270;27.942;2022-11-03T08:35:41;98817.31;;;27.41;32.71
32456;BME280;18912;43.270;27.942;2022-11-03T08:38:06;98813.75;;;27.73;32.64
32456;BME280;18912;43.270;27.942;2022-11-03T08:40:32;98820.78;;;28.21;31.34
32456;BME280;18912;43.270;27.942;2022-11-03T08:42:57;98815.66;;;28.74;31.37
32456;BME280;18912;43.270;27.942;2022-11-03T08:45:24;98817.09;;;28.39;30.87
32456;BME280;18912;43.270;27.942;2022-11-03T08:47:49;98798.34;;;28.31;31.06
32456;BME280;18912;43.270;27.942;2022-11-03T08:50:15;98818.56;;;28.50;30.87
32456;BME280;18912;43.270;27.942;2022-11-03T08:52:41;98817.50;;;28.92;30.14
32456;BME280;18912;43.270;27.942;2022-11-03T08:55:06;98810.38;;;28.99;30.13
32456;BME280;18912;43.270;27.942;2022-11-03T08:57:32;98801.75;;;28.87;29.26
32456;BME280;18912;43.270;27.942;2022-11-03T08:59:57;98797.19;;;28.64;29.91
32456;BME280;18912;43.270;27.942;2022-11-03T09:02:23;98798.53;;;28.94;29.57
32456;BME280;18912;43.270;27.942;2022-11-03T09:04:48;98798.84;;;28.79;30.15
32456;BME280;18912;43.270;27.942;2022-11-03T09:07:14;98803.06;;;28.90;29.75
32456;BME280;18912;43.270;27.942;2022-11-03T09:09:39;98800.44;;;29.47;29.68
32456;BME280;18912;43.270;27.942;2022-11-03T09:12:05;98797.63;;;29.61;28.94
32456;BME280;18912;43.270;27.942;2022-11-03T09:14:30;98800.41;;;29.97;29.18
32456;BME280;18912;43.270;27.942;2022-11-03T09:16:56;98799.50;;;30.32;28.49
32456;BME280;18912;43.270;27.942;2022-11-03T09:19:21;98793.94;;;30.63;27.58
32456;BME280;18912;43.270;27.942;2022-11-03T09:21:47;98802.81;;;30.34;28.30
32456;BME280;18912;43.270;27.942;2022-11-03T09:24:12;98793.41;;;30.08;28.26
32456;BME280;18912;43.270;27.942;2022-11-03T09:26:38;98793.81;;;30.37;28.32
32456;BME280;18912;43.270;27.942;2022-11-03T09:29:03;98792.84;;;30.42;28.16
32456;BME280;18912;43.270;27.942;2022-11-03T09:31:29;98787.59;;;30.18;28.25
32456;BME280;18912;43.270;27.942;2022-11-03T09:33:55;98775.94;;;30.16;28.17
32456;BME280;18912;43.270;27.942;2022-11-03T09:36:20;98781.97;;;30.62;28.35
32456;BME280;18912;43.270;27.942;2022-11-03T09:38:45;98775.38;;;30.89;27.89
32456;BME280;18912;43.270;27.942;2022-11-03T09:41:11;98783.91;;;31.01;27.71
32456;BME280;18912;43.270;27.942;2022-11-03T09:43:43;98776.91;;;30.73;28.06
32456;BME280;18912;43.270;27.942;2022-11-03T09:46:10;98783.16;;;30.39;27.64
32456;BME280;18912;43.270;27.942;2022-11-03T09:48:35;98769.91;;;30.45;27.91
32456;BME280;18912;43.270;27.942;2022-11-03T09:51:01;98773.63;;;30.40;27.72
32456;BME280;18912;43.270;27.942;2022-11-03T09:53:27;98779.00;;;30.28;28.36
32456;BME280;18912;43.270;27.942;2022-11-03T09:55:53;98763.41;;;29.83;28.22
32456;BME280;18912;43.270;27.942;2022-11-03T09:58:19;98773.22;;;29.80;28.48
32456;BME280;18912;43.270;27.942;2022-11-03T10:00:45;98767.34;;;29.82;28.50
32456;BME280;18912;43.270;27.942;2022-11-03T10:03:11;98762.31;;;29.92;28.33
32456;BME280;18912;43.270;27.942;2022-11-03T10:05:38;98755.59;;;30.15;27.89
32456;BME280;18912;43.270;27.942;2022-11-03T10:08:07;98754.97;;;30.18;27.40
32456;BME280;18912;43.270;27.942;2022-11-03T10:10:36;98752.78;;;29.49;28.81
32456;BME280;18912;43.270;27.942;2022-11-03T10:13:03;98748.66;;;29.46;28.33
32456;BME280;18912;43.270;27.942;2022-11-03T10:15:33;98755.09;;;29.33;27.71
32456;BME280;18912;43.270;27.942;2022-11-03T10:17:59;98758.84;;;28.88;28.45
32456;BME280;18912;43.270;27.942;2022-11-03T10:20:27;98749.25;;;28.40;29.01
32456;BME280;18912;43.270;27.942;2022-11-03T10:22:54;98747.13;;;28.64;28.99
32456;BME280;18912;43.270;27.942;2022-11-03T10:25:41;98740.28;;;28.97;28.73
32456;BME280;18912;43.270;27.942;2022-11-03T10:28:15;98741.94;;;29.25;28.27
32456;BME280;18912;43.270;27.942;2022-11-03T10:31:00;98735.50;;;29.38;27.29
32456;BME280;18912;43.270;27.942;2022-11-03T10:35:55;98739.03;;;29.30;27.80
32456;BME280;18912;43.270;27.942;2022-11-03T10:40:56;98736.16;;;29.58;27.17
32456;BME280;18912;43.270;27.942;2022-11-03T10:43:33;98725.22;;;29.12;27.21
32456;BME280;18912;43.270;27.942;2022-11-03T10:48:37;98727.75;;;28.59;28.38
32456;BME280;18912;43.270;27.942;2022-11-03T10:51:03;98734.25;;;28.68;28.56
32456;BME280;18912;43.270;27.942;2022-11-03T10:53:29;98726.28;;;28.21;28.92
32456;BME280;18912;43.270;27.942;2022-11-03T10:55:55;98720.91;;;28.11;29.45
32456;BME280;18912;43.270;27.942;2022-11-03T10:58:22;98706.38;;;28.14;29.07
32456;BME280;18912;43.270;27.942;2022-11-03T11:00:47;98713.50;;;27.88;29.68
32456;BME280;18912;43.270;27.942;2022-11-03T11:03:13;98703.38;;;28.10;29.80
32456;BME280;18912;43.270;27.942;2022-11-03T11:05:45;98704.00;;;27.75;29.94
32456;BME280;18912;43.270;27.942;2022-11-03T11:08:13;98698.22;;;27.71;30.10
32456;BME280;18912;43.270;27.942;2022-11-03T11:10:43;98699.78;;;27.45;30.16
32456;BME280;18912;43.270;27.942;2022-11-03T11:15:45;98696.56;;;27.38;30.32
32456;BME280;18912;43.270;27.942;2022-11-03T11:23:43;98678.97;;;27.24;30.62
32456;BME280;18912;43.270;27.942;2022-11-03T11:28:34;98681.72;;;27.11;31.05
32456;BME280;18912;43.270;27.942;2022-11-03T11:36:39;98672.25;;;26.74;31.71
32456;BME280;18912;43.270;27.942;2022-11-03T11:50:16;98657.66;;;25.31;36.40
32456;BME280;18912;43.270;27.942;2022-11-03T11:52:45;98671.13;;;24.55;37.86
32456;BME280;18912;43.270;27.942;2022-11-03T11:55:39;98662.75;;;24.11;38.71
32456;BME280;18912;43.270;27.942;2022-11-03T11:58:42;98655.06;;;23.93;38.86
32456;BME280;18912;43.270;27.942;2022-11-03T12:01:23;98652.75;;;24.25;38.29
32456;BME280;18912;43.270;27.942;2022-11-03T12:03:54;98660.84;;;24.06;39.40
32456;BME280;18912;43.270;27.942;2022-11-03T12:06:33;98651.00;;;23.55;41.32
32456;BME280;18912;43.270;27.942;2022-11-03T12:09:04;98649.25;;;22.74;45.26
32456;BME280;18912;43.270;27.942;2022-11-03T12:16:48;98645.88;;;21.16;50.33
32456;BME280;18912;43.270;27.942;2022-11-03T12:21:57;98648.91;;;21.15;50.71
32456;BME280;18912;43.270;27.942;2022-11-03T12:26:55;98651.75;;;20.72;52.27
32456;BME280;18912;43.270;27.942;2022-11-03T12:29:20;98646.44;;;20.38;53.53
32456;BME280;18912;43.270;27.942;2022-11-03T12:31:46;98644.22;;;20.35;54.04
32456;BME280;18912;43.270;27.942;2022-11-03T12:34:12;98642.94;;;20.21;55.43
32456;BME280;18912;43.270;27.942;2022-11-03T12:36:37;98646.63;;;20.10;56.42
32456;BME280;18912;43.270;27.942;2022-11-03T12:39:03;98642.28;;;19.71;57.91
32456;BME280;18912;43.270;27.942;2022-11-03T12:41:28;98643.63;;;19.52;58.92
32456;BME280;18912;43.270;27.942;2022-11-03T12:43:53;98646.97;;;19.54;58.71
32456;BME280;18912;43.270;27.942;2022-11-03T12:46:21;98647.34;;;19.63;57.64
32456;BME280;18912;43.270;27.942;2022-11-03T12:48:47;98645.88;;;19.38;57.92
32456;BME280;18912;43.270;27.942;2022-11-03T12:51:14;98632.50;;;19.25;57.86
32456;BME280;18912;43.270;27.942;2022-11-03T12:53:40;98646.06;;;19.48;58.22
32456;BME280;18912;43.270;27.942;2022-11-03T12:56:07;98640.66;;;19.37;59.44
32456;BME280;18912;43.270;27.942;2022-11-03T12:58:34;98640.78;;;19.30;61.24
32456;BME280;18912;43.270;27.942;2022-11-03T13:01:00;98644.72;;;19.18;62.23
32456;BME280;18912;43.270;27.942;2022-11-03T13:03:26;98645.50;;;18.69;64.44
32456;BME280;18912;43.270;27.942;2022-11-03T13:05:51;98642.44;;;18.65;65.27
32456;BME280;18912;43.270;27.942;2022-11-03T13:08:17;98646.59;;;18.28;67.00
32456;BME280;18912;43.270;27.942;2022-11-03T13:10:42;98640.38;;;18.44;66.44
32456;BME280;18912;43.270;27.942;2022-11-03T13:13:08;98647.72;;;18.55;66.18
32456;BME280;18912;43.270;27.942;2022-11-03T13:15:33;98645.50;;;18.40;66.74
32456;BME280;18912;43.270;27.942;2022-11-03T13:17:59;98645.78;;;18.27;68.19
32456;BME280;18912;43.270;27.942;2022-11-03T13:20:24;98648.00;;;18.42;66.65
32456;BME280;18912;43.270;27.942;2022-11-03T13:22:50;98648.69;;;18.49;66.17
32456;BME280;18912;43.270;27.942;2022-11-03T13:25:15;98645.41;;;18.24;67.72
32456;BME280;18912;43.270;27.942;2022-11-03T13:27:41;98639.66;;;18.37;67.01
32456;BME280;18912;43.270;27.942;2022-11-03T13:30:07;98639.72;;;18.25;67.49
32456;BME280;18912;43.270;27.942;2022-11-03T13:32:33;98637.81;;;18.14;68.08
32456;BME280;18912;43.270;27.942;2022-11-03T13:34:59;98637.31;;;17.89;69.38
32456;BME280;18912;43.270;27.942;2022-11-03T13:37:24;98639.88;;;18.07;69.65
32456;BME280;18912;43.270;27.942;2022-11-03T13:39:50;98640.78;;;18.24;68.50
32456;BME280;18912;43.270;27.942;2022-11-03T13:42:15;98630.66;;;18.25;69.06
32456;BME280;18912;43.270;27.942;2022-11-03T13:44:41;98635.66;;;17.88;70.75
32456;BME280;18912;43.270;27.942;2022-11-03T13:47:06;98641.75;;;17.55;72.43
32456;BME280;18912;43.270;27.942;2022-11-03T13:49:31;98641.41;;;17.52;73.58
32456;BME280;18912;43.270;27.942;2022-11-03T13:51:58;98648.88;;;17.45;73.94
32456;BME280;18912;43.270;27.942;2022-11-03T13:54:23;98648.16;;;17.61;73.36
32456;BME280;18912;43.270;27.942;2022-11-03T13:56:49;98646.16;;;17.68;72.85
32456;BME280;18912;43.270;27.942;2022-11-03T13:59:14;98652.22;;;17.58;73.16
32456;BME280;18912;43.270;27.942;2022-11-03T14:01:40;98642.00;;;17.54;73.85
32456;BME280;18912;43.270;27.942;2022-11-03T14:04:07;98648.16;;;17.61;73.14
32456;BME280;18912;43.270;27.942;2022-11-03T14:06:32;98646.13;;;17.22;74.83
32456;BME280;18912;43.270;27.942;2022-11-03T14:08:58;98648.88;;;17.22;76.11
32456;BME280;18912;43.270;27.942;2022-11-03T14:11:23;98652.56;;;17.39;75.35
32456;BME280;18912;43.270;27.942;2022-11-03T14:14:07;98650.91;;;17.61;74.36
32456;BME280;18912;43.270;27.942;2022-11-03T14:16:33;98649.47;;;17.24;76.04